createdAt,value
2022-08-22T00:01:40.035Z,70.93
2022-08-22T00:03:06.692Z,70.41
2022-08-22T00:04:15.771Z,71.65
2022-08-22T00:06:49.299Z,71.89
2022-08-22T00:09:29.423Z,71.90
2022-08-22T00:12:05.747Z,72.46
2022-08-22T00:14:41.072Z,72.11
2022-08-22T00:17:23.854Z,72.71
2022-08-22T00:19:57.418Z,73.95
2022-08-22T00:22:31.512Z,73.32
2022-08-22T00:25:25.431Z,74.49
2022-08-22T00:27:59.267Z,73.82
2022-08-22T00:30:30.252Z,73.88
2022-08-22T00:33:04.951Z,73.70
2022-08-22T00:35:40.547Z,73.39
2022-08-22T00:38:17.881Z,75.28
2022-08-22T00:40:57.108Z,74.53
2022-08-22T00:43:54.720Z,74.23
2022-08-22T00:46:36.717Z,74.31
2022-08-22T00:49:16.884Z,74.44
2022-08-22T00:52:08.537Z,74.36
2022-08-22T00:54:52.483Z,74.45
2022-08-22T00:57:32.900Z,74.32
2022-08-22T01:00:25.253Z,73.98
2022-08-22T01:03:36.076Z,74.64
2022-08-22T01:06:18.493Z,74.74
2022-08-22T01:08:58.207Z,75.10
2022-08-22T01:11:54.558Z,75.15
2022-08-22T01:14:37.899Z,76.53
2022-08-22T01:17:33.737Z,75.55
2022-08-22T01:20:24.258Z,76.06
2022-08-22T01:23:28.360Z,75.56
2022-08-22T01:26:29.818Z,76.15
2022-08-22T01:29:32.006Z,76.63
2022-08-22T01:32:37.119Z,77.20
2022-08-22T01:35:23.264Z,77.67
2022-08-22T01:38:10.136Z,77.26
2022-08-22T01:41:07.265Z,77.39
2022-08-22T01:44:01.150Z,77.86
2022-08-22T01:46:44.822Z,78.57
2022-08-22T01:49:18.678Z,79.35
2022-08-22T01:51:52.668Z,79.24
2022-08-22T01:54:39.335Z,78.11
2022-08-22T01:57:09.655Z,78.00
2022-08-22T01:59:42.669Z,78.31
2022-08-22T02:02:37.334Z,78.16
2022-08-22T02:05:11.047Z,78.04
2022-08-22T02:07:48.893Z,78.46
2022-08-22T02:10:23.010Z,78.98
2022-08-22T02:12:59.607Z,78.81
2022-08-22T02:15:36.979Z,78.80
2022-08-22T02:18:15.485Z,78.42
2022-08-22T02:20:58.482Z,78.76
2022-08-22T02:23:31.752Z,78.97
2022-08-22T02:26:07.353Z,79.50
2022-08-22T02:28:57.275Z,79.45
2022-08-22T02:31:37.468Z,79.05
2022-08-22T02:34:21.822Z,79.59
2022-08-22T02:36:58.062Z,80.02
2022-08-22T02:39:35.056Z,80.80
2022-08-22T02:42:15.909Z,80.56
2022-08-22T02:44:52.856Z,80.66
2022-08-22T02:47:30.648Z,81.34
2022-08-22T02:50:07.191Z,81.79
2022-08-22T02:52:54.842Z,81.51
2022-08-22T02:55:34.626Z,82.11
2022-08-22T02:58:07.462Z,81.03
2022-08-22T03:00:46.114Z,81.39
2022-08-22T03:03:22.696Z,82.10
2022-08-22T03:06:01.334Z,82.60
2022-08-22T03:08:32.148Z,82.24
2022-08-22T03:11:10.670Z,82.13
2022-08-22T03:13:49.534Z,81.35
2022-08-22T03:16:25.484Z,82.03
2022-08-22T03:18:58.378Z,82.85
2022-08-22T03:21:34.287Z,82.82
2022-08-22T03:24:08.562Z,82.93
2022-08-22T03:26:46.060Z,81.77
2022-08-22T03:29:19.979Z,82.70
2022-08-22T03:32:14.112Z,82.59
2022-08-22T03:34:57.549Z,82.11
2022-08-22T03:37:34.534Z,82.26
2022-08-22T03:40:06.073Z,82.15
2022-08-22T03:43:00.266Z,81.75
2022-08-22T03:45:59.138Z,82.44
2022-08-22T03:48:47.423Z,82.60
2022-08-22T03:51:33.736Z,83.04
2022-08-22T03:54:17.908Z,83.29
2022-08-22T03:57:37.237Z,83.52
2022-08-22T04:00:38.045Z,82.60
2022-08-22T04:03:36.337Z,82.90
2022-08-22T04:06:42.089Z,81.87
2022-08-22T04:09:46.420Z,81.66
2022-08-22T04:12:25.888Z,81.82
2022-08-22T04:15:20.482Z,80.82
2022-08-22T04:18:03.510Z,81.15
2022-08-22T04:21:01.154Z,82.00
2022-08-22T04:23:48.396Z,81.77
2022-08-22T04:26:20.053Z,80.81
2022-08-22T04:28:50.412Z,81.14
2022-08-22T04:31:24.859Z,80.94
2022-08-22T04:34:01.951Z,80.97
2022-08-22T04:36:35.775Z,81.35
2022-08-22T04:39:07.891Z,82.14
2022-08-22T04:41:43.509Z,82.53
2022-08-22T04:44:14.985Z,82.45
2022-08-22T04:46:48.435Z,81.07
2022-08-22T04:49:24.555Z,81.60
2022-08-22T04:51:59.193Z,81.99
2022-08-22T04:54:38.022Z,81.47
2022-08-22T04:57:17.999Z,81.62
2022-08-22T04:59:46.941Z,81.14
2022-08-22T05:02:23.277Z,80.86
2022-08-22T05:04:59.518Z,80.86
2022-08-22T05:07:36.024Z,80.55
2022-08-22T05:10:11.994Z,80.81
2022-08-22T05:12:49.497Z,80.91
2022-08-22T05:15:23.188Z,81.12
2022-08-22T05:17:53.828Z,80.80
2022-08-22T05:20:25.607Z,80.53
2022-08-22T05:22:57.948Z,80.50
2022-08-22T05:25:29.352Z,81.52
2022-08-22T05:28:08.287Z,80.57
2022-08-22T05:30:37.221Z,79.95
2022-08-22T05:33:14.361Z,79.85
2022-08-22T05:35:50.791Z,78.86
2022-08-22T05:38:25.093Z,78.85
2022-08-22T05:40:57.364Z,80.23
2022-08-22T05:43:26.966Z,78.88
2022-08-22T05:45:58.053Z,78.67
2022-08-22T05:48:31.583Z,78.73
2022-08-22T05:51:09.118Z,79.22
2022-08-22T05:53:40.836Z,79.23
2022-08-22T05:56:15.165Z,79.03
2022-08-22T05:58:53.276Z,78.70
2022-08-22T06:01:26.350Z,79.21
2022-08-22T06:04:01.033Z,79.21
2022-08-22T06:06:33.679Z,78.57
2022-08-22T06:09:04.732Z,77.55
2022-08-22T06:11:39.505Z,78.59
2022-08-22T06:14:16.310Z,77.44
2022-08-22T06:16:51.665Z,77.36
2022-08-22T06:19:22.067Z,76.43
2022-08-22T06:21:53.376Z,75.80
2022-08-22T06:24:25.709Z,76.10
2022-08-22T06:26:58.346Z,76.34
2022-08-22T06:29:34.595Z,74.53
2022-08-22T06:32:11.791Z,73.42
2022-08-22T06:34:42.941Z,73.48
2022-08-22T06:37:18.096Z,72.89
2022-08-22T06:39:49.971Z,73.42
2022-08-22T06:42:22.674Z,72.86
2022-08-22T06:44:54.656Z,73.29
2022-08-22T06:47:27.406Z,72.15
2022-08-22T06:50:04.947Z,71.33
2022-08-22T06:52:39.651Z,70.29
2022-08-22T06:55:10.446Z,70.18
2022-08-22T06:57:45.079Z,71.18
2022-08-22T07:00:16.898Z,71.32
2022-08-22T07:02:48.256Z,71.61
2022-08-22T07:05:20.044Z,69.45
2022-08-22T07:07:50.551Z,68.06
2022-08-22T07:10:20.019Z,67.54
2022-08-22T07:12:51.394Z,68.48
2022-08-22T07:15:24.251Z,67.49
2022-08-22T07:17:59.165Z,68.55
2022-08-22T07:20:29.621Z,67.13
2022-08-22T07:23:02.015Z,65.85
2022-08-22T07:25:31.689Z,64.91
2022-08-22T07:28:21.558Z,63.61
2022-08-22T07:31:12.179Z,63.08
2022-08-22T07:33:45.127Z,61.22
2022-08-22T07:36:36.962Z,58.95
2022-08-22T07:39:26.256Z,58.20
2022-08-22T07:42:10.004Z,58.55
2022-08-22T07:44:50.875Z,59.79
2022-08-22T07:47:26.367Z,59.16
2022-08-22T07:49:59.268Z,57.37
2022-08-22T07:52:33.734Z,56.91
2022-08-22T07:55:13.042Z,57.67
2022-08-22T07:57:45.034Z,56.71
2022-08-22T08:00:17.554Z,56.47
2022-08-22T08:02:47.996Z,55.49
2022-08-22T08:05:17.467Z,54.52
2022-08-22T08:07:47.918Z,54.93
2022-08-22T08:10:20.508Z,54.79
2022-08-22T08:13:02.163Z,54.35
2022-08-22T08:15:34.306Z,53.01
2022-08-22T08:18:12.981Z,53.61
2022-08-22T08:20:41.951Z,51.96
2022-08-22T08:23:11.943Z,52.00
2022-08-22T08:25:54.948Z,52.40
2022-08-22T08:28:34.935Z,50.56
2022-08-22T08:31:08.867Z,51.56
2022-08-22T08:33:41.127Z,51.02
2022-08-22T08:36:20.024Z,50.70
2022-08-22T08:38:52.931Z,49.03
2022-08-22T08:41:52.002Z,48.97
2022-08-22T08:44:37.218Z,50.22
2022-08-22T08:47:24.456Z,49.94
2022-08-22T08:50:16.074Z,50.91
2022-08-22T08:53:11.617Z,48.61
2022-08-22T08:55:47.480Z,49.02
2022-08-22T08:58:30.141Z,49.74
2022-08-22T09:01:07.205Z,50.05
2022-08-22T09:03:59.856Z,50.69
2022-08-22T09:06:52.841Z,50.37
2022-08-22T09:09:41.087Z,49.75
2022-08-22T09:12:34.670Z,49.71
2022-08-22T09:15:42.413Z,50.29
2022-08-22T09:18:49.763Z,50.48
2022-08-22T09:21:30.723Z,48.22
2022-08-22T09:24:32.968Z,50.84
2022-08-22T09:27:03.966Z,50.43
2022-08-22T09:32:44.478Z,46.77
2022-08-22T09:35:23.553Z,45.61
2022-08-22T09:38:03.561Z,45.45
2022-08-22T09:40:39.098Z,46.46
2022-08-22T09:43:12.300Z,45.63
2022-08-22T09:45:47.923Z,43.89
2022-08-22T09:48:34.546Z,42.69
2022-08-22T09:51:31.691Z,43.42
2022-08-22T09:54:31.023Z,43.02
2022-08-22T09:57:07.703Z,43.68
2022-08-22T10:00:02.061Z,45.22
2022-08-22T10:02:36.362Z,43.63
2022-08-22T10:05:13.639Z,42.19
2022-08-22T10:08:29.212Z,40.78
2022-08-22T10:11:11.283Z,45.77
2022-08-22T10:13:57.400Z,42.88
2022-08-22T10:17:00.225Z,39.89
2022-08-22T10:19:33.779Z,42.38
2022-08-22T10:22:20.988Z,42.41
2022-08-22T10:25:07.461Z,41.64
2022-08-22T10:27:48.784Z,38.85
2022-08-22T10:30:20.212Z,38.33
2022-08-22T10:32:53.789Z,37.99
2022-08-22T10:35:27.995Z,37.91
2022-08-22T10:38:10.590Z,37.92
2022-08-22T10:40:44.997Z,38.22
2022-08-22T10:43:21.064Z,39.26
2022-08-22T10:46:04.599Z,38.29
2022-08-22T10:48:44.128Z,37.30
2022-08-22T10:51:19.484Z,37.23
2022-08-22T10:54:14.649Z,38.43
2022-08-22T10:56:55.746Z,37.51
2022-08-22T10:59:34.597Z,34.02
2022-08-22T11:02:18.141Z,34.67
2022-08-22T11:05:13.999Z,35.69
2022-08-22T11:07:48.654Z,37.00
2022-08-22T11:10:25.125Z,32.14
2022-08-22T11:13:12.661Z,32.96
2022-08-22T11:15:58.173Z,35.26
2022-08-22T11:18:37.157Z,33.48
2022-08-22T11:21:09.368Z,36.71
2022-08-22T11:23:43.114Z,34.59
2022-08-22T11:26:35.792Z,35.79
2022-08-22T11:29:35.495Z,34.00
2022-08-22T11:32:13.405Z,35.21
2022-08-22T11:34:50.962Z,32.20
2022-08-22T11:37:42.593Z,31.87
2022-08-22T11:40:37.624Z,31.51
2022-08-22T11:43:18.132Z,34.87
2022-08-22T11:45:50.766Z,33.90
2022-08-22T11:48:24.439Z,33.24
2022-08-22T11:50:57.933Z,35.51
2022-08-22T11:53:34.076Z,34.13
2022-08-22T11:56:13.785Z,34.54
2022-08-22T11:58:50.227Z,36.33
2022-08-22T12:01:23.996Z,35.86
2022-08-22T12:04:00.603Z,33.42
2022-08-22T12:06:57.942Z,34.28
2022-08-22T12:09:40.903Z,34.71
2022-08-22T12:12:25.825Z,35.23
2022-08-22T12:14:59.305Z,35.37
2022-08-22T12:18:11.726Z,36.26
2022-08-22T12:21:11.284Z,35.60
2022-08-22T12:24:21.008Z,32.87
2022-08-22T12:27:00.234Z,35.00
2022-08-22T12:29:44.671Z,31.77
2022-08-22T12:32:34.762Z,33.05
2022-08-22T12:35:19.299Z,31.32
2022-08-22T12:37:53.445Z,32.17
2022-08-22T12:40:29.645Z,33.67
2022-08-22T12:43:29.779Z,32.12
2022-08-22T12:46:15.730Z,33.77
2022-08-22T12:49:12.395Z,30.93
2022-08-22T12:51:56.427Z,32.54
2022-08-22T12:54:52.302Z,31.67
2022-08-22T12:57:31.269Z,30.97
2022-08-22T13:00:18.113Z,31.41
2022-08-22T13:02:53.459Z,30.86
2022-08-22T13:05:25.089Z,33.69
2022-08-22T13:07:57.192Z,31.70
2022-08-22T13:10:38.297Z,30.22
2022-08-22T13:13:12.125Z,29.78
2022-08-22T13:15:45.221Z,31.52
2022-08-22T13:18:29.384Z,31.35
2022-08-22T13:21:01.852Z,30.95
2022-08-22T13:23:39.981Z,31.26
2022-08-22T13:26:33.718Z,31.48
2022-08-22T13:29:26.473Z,31.30
2022-08-22T13:32:00.304Z,29.44
2022-08-22T13:34:39.980Z,31.75
2022-08-22T13:37:15.468Z,30.32
2022-08-22T13:39:47.120Z,31.48
2022-08-22T13:42:29.926Z,30.35
2022-08-22T13:45:03.117Z,30.84
2022-08-22T13:47:39.598Z,30.03
2022-08-22T13:50:13.959Z,29.23
2022-08-22T13:52:52.498Z,29.43
2022-08-22T13:55:29.492Z,28.83
2022-08-22T13:58:07.758Z,28.99
2022-08-22T14:01:10.970Z,30.56
2022-08-22T14:03:45.419Z,29.41
2022-08-22T14:06:41.411Z,29.81
2022-08-22T14:09:31.319Z,30.12
2022-08-22T14:12:11.992Z,30.73
2022-08-22T14:14:45.859Z,29.42
2022-08-22T14:17:17.433Z,29.90
2022-08-22T14:19:52.939Z,30.26
2022-08-22T14:22:34.815Z,30.85
2022-08-22T14:25:07.511Z,32.84
2022-08-22T14:27:39.742Z,31.88
2022-08-22T14:30:18.911Z,30.52
2022-08-22T14:32:51.119Z,30.52
2022-08-22T14:35:35.175Z,31.77
2022-08-22T14:38:18.242Z,29.93
2022-08-22T14:40:48.655Z,31.13
2022-08-22T14:43:22.448Z,30.39
2022-08-22T14:46:02.223Z,32.07
2022-08-22T14:48:40.551Z,30.69
2022-08-22T14:51:11.853Z,30.02
2022-08-22T14:53:41.475Z,32.55
2022-08-22T14:56:12.672Z,31.34
2022-08-22T14:58:50.650Z,33.07
2022-08-22T15:01:25.045Z,32.28
2022-08-22T15:03:56.331Z,33.03
2022-08-22T15:06:35.141Z,31.86
2022-08-22T15:09:08.333Z,32.84
2022-08-22T15:11:37.839Z,32.61
2022-08-22T15:14:16.002Z,33.14
2022-08-22T15:16:52.950Z,32.29
2022-08-22T15:19:27.235Z,31.85
2022-08-22T15:22:09.977Z,31.91
2022-08-22T15:24:46.467Z,32.64
2022-08-22T15:27:18.830Z,33.62
2022-08-22T15:29:53.061Z,32.53
2022-08-22T15:32:26.718Z,31.73
2022-08-22T15:35:04.910Z,34.84
2022-08-22T15:37:35.500Z,33.08
2022-08-22T15:40:12.648Z,32.43
2022-08-22T15:42:44.010Z,33.71
2022-08-22T15:45:22.722Z,32.94
2022-08-22T15:47:54.653Z,33.02
2022-08-22T15:50:32.250Z,33.03
2022-08-22T15:53:18.012Z,32.97
2022-08-22T15:56:29.004Z,33.16
2022-08-22T15:59:24.410Z,32.77
2022-08-22T16:01:58.794Z,34.72
2022-08-22T16:04:40.468Z,32.88
2022-08-22T16:07:26.885Z,35.37
2022-08-22T16:09:58.009Z,35.27
2022-08-22T16:12:32.829Z,35.22
2022-08-22T16:15:05.234Z,32.94
2022-08-22T16:17:44.246Z,35.40
2022-08-22T16:20:54.010Z,32.68
2022-08-22T16:23:22.973Z,34.43
2022-08-22T16:26:12.885Z,36.11
2022-08-22T16:28:59.004Z,35.68
2022-08-22T16:31:30.868Z,35.10
2022-08-22T16:34:20.387Z,38.19
2022-08-22T16:36:53.893Z,34.24
2022-08-22T16:39:35.585Z,36.07
2022-08-22T16:42:26.666Z,34.04
2022-08-22T16:45:11.163Z,35.23
2022-08-22T16:47:43.065Z,33.62
2022-08-22T16:50:28.576Z,34.05
2022-08-22T16:53:03.180Z,33.58
2022-08-22T16:55:56.431Z,32.88
2022-08-22T16:59:09.848Z,32.99
2022-08-22T17:02:03.018Z,32.45
2022-08-22T17:04:40.365Z,33.22
2022-08-22T17:07:18.808Z,35.43
2022-08-22T17:10:12.631Z,33.63
2022-08-22T17:12:54.117Z,33.54
2022-08-22T17:15:32.727Z,32.22
2022-08-22T17:18:15.978Z,35.98
2022-08-22T17:20:48.564Z,37.23
2022-08-22T17:23:26.722Z,37.78
2022-08-22T17:26:01.797Z,38.23
2022-08-22T17:28:37.100Z,37.71
2022-08-22T17:31:12.076Z,38.16
2022-08-22T17:34:07.159Z,37.54
2022-08-22T17:36:54.069Z,37.79
2022-08-22T17:39:33.668Z,38.28
2022-08-22T17:42:29.396Z,36.97
2022-08-22T17:45:07.302Z,39.38
2022-08-22T17:47:46.669Z,38.89
2022-08-22T17:50:22.907Z,37.68
2022-08-22T17:52:57.784Z,36.98
2022-08-22T17:55:31.847Z,36.54
2022-08-22T17:58:37.682Z,39.47
2022-08-22T18:01:13.719Z,40.65
2022-08-22T18:03:47.711Z,40.47
2022-08-22T18:06:23.246Z,39.94
2022-08-22T18:11:49.576Z,40.47
2022-08-22T18:14:33.871Z,40.15
2022-08-22T18:17:15.031Z,40.20
2022-08-22T18:19:53.135Z,41.53
2022-08-22T18:22:25.970Z,41.31
2022-08-22T18:24:58.901Z,42.40
2022-08-22T18:27:35.396Z,43.38
2022-08-22T18:30:16.474Z,42.80
2022-08-22T18:32:50.980Z,43.24
2022-08-22T18:35:23.850Z,44.66
2022-08-22T18:37:59.212Z,44.32
2022-08-22T18:40:33.005Z,44.50
2022-08-22T18:43:13.986Z,44.18
2022-08-22T18:46:04.150Z,44.96
2022-08-22T18:48:54.239Z,44.21
2022-08-22T18:51:30.437Z,43.06
2022-08-22T18:54:17.837Z,44.16
2022-08-22T18:56:51.666Z,43.91
2022-08-22T18:59:42.546Z,45.04
2022-08-22T19:02:28.251Z,45.40
2022-08-22T19:05:40.967Z,45.28
2022-08-22T19:08:31.354Z,45.98
2022-08-22T19:11:15.608Z,46.62
2022-08-22T19:13:53.211Z,46.74
2022-08-22T19:16:45.313Z,47.10
2022-08-22T19:19:18.638Z,47.64
2022-08-22T19:22:21.744Z,47.21
2022-08-22T19:25:26.195Z,47.54
2022-08-22T19:28:26.691Z,46.61
2022-08-22T19:31:22.392Z,48.55
2022-08-22T19:33:52.353Z,50.41
2022-08-22T19:36:34.456Z,51.61
2022-08-22T19:39:09.012Z,51.16
2022-08-22T19:41:40.591Z,50.99
2022-08-22T19:44:22.157Z,51.79
2022-08-22T19:47:14.852Z,51.73
2022-08-22T19:50:05.722Z,51.59
2022-08-22T19:52:48.180Z,50.02
2022-08-22T19:55:22.691Z,49.51
2022-08-22T19:57:58.598Z,51.65
2022-08-22T20:00:47.545Z,51.95
2022-08-22T20:03:31.031Z,51.14
2022-08-22T20:06:05.920Z,49.29
2022-08-22T20:08:48.457Z,48.83
2022-08-22T20:11:27.244Z,49.20
2022-08-22T20:14:12.057Z,49.51
2022-08-22T20:17:04.322Z,49.59
2022-08-22T20:20:16.558Z,51.31
2022-08-22T20:22:38.691Z,50.93
2022-08-22T20:25:16.270Z,51.11
2022-08-22T20:28:05.357Z,52.57
2022-08-22T20:30:40.375Z,52.49
2022-08-22T20:33:13.874Z,52.35
2022-08-22T20:35:45.223Z,53.11
2022-08-22T20:38:17.610Z,52.18
2022-08-22T20:40:55.543Z,52.75
2022-08-22T20:43:29.907Z,53.39
2022-08-22T20:46:05.520Z,54.79
2022-08-22T20:48:39.256Z,53.83
2022-08-22T20:51:10.139Z,55.38
2022-08-22T20:53:38.940Z,53.27
2022-08-22T20:56:10.532Z,53.58
2022-08-22T20:58:46.949Z,54.13
2022-08-22T21:01:16.403Z,55.02
2022-08-22T21:03:46.721Z,55.58
2022-08-22T21:06:17.674Z,56.23
2022-08-22T21:09:07.935Z,55.90
2022-08-22T21:11:40.207Z,56.69
2022-08-22T21:14:23.088Z,56.02
2022-08-22T21:16:53.656Z,56.90
2022-08-22T21:19:26.414Z,56.78
2022-08-22T21:21:56.393Z,56.86
2022-08-22T21:24:25.192Z,56.98
2022-08-22T21:26:57.941Z,57.30
2022-08-22T21:29:33.960Z,57.27
2022-08-22T21:32:12.492Z,57.54
2022-08-22T21:34:45.009Z,56.89
2022-08-22T21:37:16.536Z,56.52
2022-08-22T21:39:47.479Z,56.18
2022-08-22T21:42:24.797Z,56.27
2022-08-22T21:44:57.950Z,57.34
2022-08-22T21:47:31.606Z,56.37
2022-08-22T21:50:04.577Z,57.48
2022-08-22T21:52:34.865Z,56.46
2022-08-22T21:55:25.438Z,56.99
2022-08-22T21:58:13.120Z,55.05
2022-08-22T22:01:03.975Z,55.19
2022-08-22T22:03:37.867Z,54.44
2022-08-22T22:06:07.485Z,55.37
2022-08-22T22:08:36.296Z,57.01
2022-08-22T22:11:09.022Z,56.74
2022-08-22T22:13:41.167Z,57.30
2022-08-22T22:16:12.044Z,57.21
2022-08-22T22:18:41.550Z,57.80
2022-08-22T22:21:10.380Z,58.96
2022-08-22T22:23:39.369Z,58.89
2022-08-22T22:26:08.072Z,58.67
2022-08-22T22:28:41.469Z,58.53
2022-08-22T22:31:10.824Z,59.37
2022-08-22T22:33:41.139Z,59.60
2022-08-22T22:36:12.691Z,59.55
2022-08-22T22:38:42.214Z,59.14
2022-08-22T22:41:11.314Z,59.45
2022-08-22T22:43:41.608Z,59.83
2022-08-22T22:46:10.366Z,59.13
2022-08-22T22:48:39.082Z,59.19
2022-08-22T22:51:09.498Z,59.49
2022-08-22T22:53:40.347Z,61.08
2022-08-22T22:56:15.771Z,60.42
2022-08-22T22:58:47.503Z,60.94
2022-08-22T23:01:18.678Z,60.84
2022-08-22T23:03:48.305Z,60.68
2022-08-22T23:06:19.462Z,60.00
2022-08-22T23:08:49.349Z,60.24
2022-08-22T23:11:19.937Z,59.61
2022-08-22T23:13:50.594Z,60.33
2022-08-22T23:16:21.584Z,60.58
2022-08-22T23:18:50.747Z,61.27
2022-08-22T23:21:22.217Z,61.13
2022-08-22T23:23:52.247Z,61.37
2022-08-22T23:26:21.029Z,61.28
2022-08-22T23:28:51.266Z,60.70
2022-08-22T23:31:29.138Z,60.96
2022-08-22T23:34:01.166Z,61.29
2022-08-22T23:36:30.572Z,61.49
2022-08-22T23:38:59.373Z,62.34
2022-08-22T23:41:28.226Z,61.12
2022-08-22T23:43:58.414Z,61.39
2022-08-22T23:46:31.252Z,61.65
2022-08-22T23:49:00.584Z,61.02
2022-08-22T23:51:29.776Z,61.35
2022-08-22T23:53:59.678Z,61.29
2022-08-22T23:56:30.493Z,61.22
2022-08-22T23:59:01.614Z,61.24
